Terminal Aerodrome Forecast
Issued by NWS Billings, MT

Home | Current Version | Previous Version | Text Only | Print | Product List | Glossary On
Versions: 1 2 3 4 5 6 7 8 9 10 11 12 13 14 15 16 17
000
FTUS45 KBYZ 280818 AAA
TAFSHR
TAF AMD
KSHR 280818Z 2808/2906 VRB04KT 3SM RA BR VCTS BKN030CB OVC060
     FM280900 VRB04KT P6SM -RA VCTS BKN025CB OVC040
     FM281400 VRB04KT P6SM -RA VCTS SCT025CB BKN040
     FM281600 05005KT P6SM VCSH FEW025 BKN150
     FM281800 09006KT P6SM VCTS FEW025CB BKN200=

USA.gov is the U.S. government's official web portal to all federal, state and local government web resources and services.